createdAt,value
2023-02-08T00:00:45.621Z,84.94
2023-02-08T00:05:46.289Z,85.24
2023-02-08T00:10:48.321Z,85.03
2023-02-08T00:15:49.096Z,84.87
2023-02-08T00:20:50.308Z,84.82
2023-02-08T00:25:52.327Z,85.05
2023-02-08T00:30:53.462Z,84.73
2023-02-08T00:35:59.576Z,84.54
2023-02-08T00:41:01.642Z,84.74
2023-02-08T00:46:02.352Z,84.56
2023-02-08T00:51:05.329Z,84.09
2023-02-08T00:56:08.434Z,84.35
2023-02-08T01:01:09.300Z,84.26
2023-02-08T01:06:12.194Z,84.35
2023-02-08T01:11:16.311Z,84.62
2023-02-08T01:16:20.981Z,84.88
2023-02-08T01:21:24.444Z,84.67
2023-02-08T01:26:27.204Z,84.52
2023-02-08T01:31:30.804Z,84.61
2023-02-08T01:36:35.007Z,84.78
2023-02-08T01:41:39.994Z,84.56
2023-02-08T01:46:43.033Z,84.24
2023-02-08T01:51:49.136Z,84.58
2023-02-08T01:56:51.953Z,84.88
2023-02-08T02:01:55.618Z,84.67
2023-02-08T02:07:00.497Z,84.43
2023-02-08T02:12:03.195Z,85.01
2023-02-08T02:17:04.140Z,84.64
2023-02-08T02:22:17.129Z,84.90
2023-02-08T02:27:35.832Z,84.86
2023-02-08T02:32:55.242Z,84.94
2023-02-08T02:38:05.151Z,85.02
2023-02-08T02:43:32.440Z,84.50
2023-02-08T02:48:42.532Z,84.31
2023-02-08T02:53:50.433Z,84.50
2023-02-08T02:58:53.402Z,83.87
2023-02-08T03:03:55.864Z,84.23
2023-02-08T03:09:07.648Z,84.37
2023-02-08T03:14:25.222Z,84.08
2023-02-08T03:19:36.269Z,83.85
2023-02-08T03:24:47.044Z,84.18
2023-02-08T03:29:55.600Z,83.97
2023-02-08T03:35:02.672Z,84.33
2023-02-08T03:40:08.506Z,84.10
2023-02-08T03:45:16.065Z,84.08
2023-02-08T03:50:21.015Z,83.99
2023-02-08T03:55:26.405Z,84.44
2023-02-08T04:00:27.867Z,84.50
2023-02-08T04:05:30.448Z,84.62
2023-02-08T04:10:31.164Z,84.66
2023-02-08T04:15:32.272Z,84.29
2023-02-08T04:20:34.310Z,84.50
2023-02-08T04:25:34.951Z,84.52
2023-02-08T04:30:35.701Z,84.52
2023-02-08T04:35:37.758Z,84.19
2023-02-08T04:40:38.616Z,84.01
2023-02-08T04:45:39.407Z,83.78
2023-02-08T04:50:41.794Z,84.26
2023-02-08T04:55:42.928Z,84.54
2023-02-08T05:00:43.769Z,83.87
2023-02-08T05:05:45.772Z,84.42
2023-02-08T05:10:46.846Z,84.34
2023-02-08T05:15:48.242Z,84.39
2023-02-08T05:20:56.883Z,83.87
2023-02-08T05:25:57.556Z,84.50
2023-02-08T05:30:58.302Z,83.82
2023-02-08T05:36:00.313Z,84.31
2023-02-08T05:41:01.215Z,84.39
2023-02-08T05:46:02.028Z,83.83
2023-02-08T05:51:04.205Z,84.60
2023-02-08T05:56:05.182Z,83.93
2023-02-08T06:01:09.457Z,84.29
2023-02-08T06:06:11.906Z,84.41
2023-02-08T06:11:12.630Z,84.40
2023-02-08T06:16:13.519Z,83.72
2023-02-08T06:21:15.533Z,84.48
2023-02-08T06:26:16.350Z,84.44
2023-02-08T06:31:17.111Z,85.44
2023-02-08T06:36:19.182Z,84.39
2023-02-08T06:41:20.096Z,83.17
2023-02-08T06:46:20.778Z,83.11
2023-02-08T06:51:22.749Z,82.19
2023-02-08T06:56:23.411Z,81.85
2023-02-08T07:01:24.246Z,80.92
2023-02-08T07:06:26.337Z,80.93
2023-02-08T07:11:27.076Z,79.71
2023-02-08T07:16:27.832Z,79.29
2023-02-08T07:21:29.896Z,78.74
2023-02-08T07:26:30.812Z,78.40
2023-02-08T07:31:31.626Z,78.10
2023-02-08T07:36:35.734Z,78.00
2023-02-08T07:41:36.400Z,77.55
2023-02-08T07:46:37.069Z,77.06
2023-02-08T07:51:39.270Z,76.66
2023-02-08T07:56:39.992Z,76.36
2023-02-08T08:01:40.733Z,75.55
2023-02-08T08:06:42.751Z,75.04
2023-02-08T08:11:43.412Z,74.48
2023-02-08T08:16:44.070Z,73.68
2023-02-08T08:21:46.038Z,73.25
2023-02-08T08:26:46.741Z,72.89
2023-02-08T08:31:47.455Z,72.67
2023-02-08T08:36:49.450Z,72.25
2023-02-08T08:41:50.154Z,72.13
2023-02-08T08:46:50.869Z,71.89
2023-02-08T08:51:53.006Z,71.34
2023-02-08T08:56:53.808Z,71.53
2023-02-08T09:01:54.819Z,70.84
2023-02-08T09:06:56.904Z,70.13
2023-02-08T09:11:57.580Z,70.44
2023-02-08T09:16:58.222Z,70.07
2023-02-08T09:22:00.689Z,68.90
2023-02-08T09:27:01.468Z,68.89
2023-02-08T09:32:02.263Z,67.38
2023-02-08T09:37:04.395Z,67.61
2023-02-08T09:42:17.269Z,66.99
2023-02-08T09:47:21.227Z,66.46
2023-02-08T09:52:28.641Z,65.97
2023-02-08T09:57:33.870Z,65.27
2023-02-08T10:02:35.690Z,64.94
2023-02-08T10:07:38.121Z,65.23
2023-02-08T10:12:47.588Z,65.42
2023-02-08T10:18:12.105Z,63.41
2023-02-08T10:23:25.025Z,63.18
2023-02-08T10:28:37.627Z,63.65
2023-02-08T10:33:43.758Z,62.29
2023-02-08T10:38:50.378Z,62.11
2023-02-08T10:43:55.615Z,61.89
2023-02-08T10:49:08.212Z,61.22
2023-02-08T10:54:13.564Z,61.58
2023-02-08T10:59:22.957Z,60.80
2023-02-08T11:04:23.678Z,60.21
2023-02-08T11:09:29.065Z,60.39
2023-02-08T11:14:46.329Z,60.40
2023-02-08T11:19:47.984Z,59.75
2023-02-08T11:24:57.648Z,59.78
2023-02-08T11:30:20.139Z,58.83
2023-02-08T11:35:23.458Z,58.58
2023-02-08T11:40:30.392Z,58.42
2023-02-08T11:45:33.226Z,58.06
2023-02-08T11:50:35.891Z,56.81
2023-02-08T11:55:37.983Z,56.81
2023-02-08T12:00:40.608Z,57.71
2023-02-08T12:05:53.787Z,56.64
2023-02-08T12:11:16.591Z,60.32
2023-02-08T12:16:36.738Z,55.64
2023-02-08T12:21:42.545Z,55.64
2023-02-08T12:27:01.507Z,55.52
2023-02-08T12:32:16.883Z,54.86
2023-02-08T12:37:53.473Z,55.26
2023-02-08T12:43:07.174Z,55.33
2023-02-08T12:48:22.609Z,54.61
2023-02-08T12:53:32.175Z,54.12
2023-02-08T12:58:40.518Z,54.24
2023-02-08T13:03:48.575Z,52.72
2023-02-08T13:08:55.091Z,52.18
2023-02-08T13:14:04.683Z,52.99
2023-02-08T13:19:27.465Z,52.10
2023-02-08T13:24:34.327Z,52.63
2023-02-08T13:29:37.561Z,53.17
2023-02-08T13:34:42.080Z,52.35
2023-02-08T13:39:46.289Z,52.89
2023-02-08T13:44:53.264Z,52.93
2023-02-08T13:49:59.999Z,53.14
2023-02-08T13:55:35.961Z,53.36
2023-02-08T14:01:01.049Z,53.42
2023-02-08T14:06:06.263Z,53.94
2023-02-08T14:11:15.311Z,53.78
2023-02-08T14:16:31.832Z,54.11
2023-02-08T14:21:39.500Z,53.86
2023-02-08T14:26:40.317Z,53.44
2023-02-08T14:31:44.265Z,53.60
2023-02-08T14:36:46.399Z,53.59
2023-02-08T14:41:54.454Z,54.23
2023-02-08T14:46:55.134Z,53.90
2023-02-08T14:52:00.579Z,54.62
2023-02-08T14:57:04.866Z,54.55
2023-02-08T15:02:15.300Z,55.17
2023-02-08T15:07:33.045Z,54.99
2023-02-08T15:12:36.748Z,56.50
2023-02-08T15:17:42.215Z,56.94
2023-02-08T15:22:44.335Z,56.48
2023-02-08T15:27:48.303Z,57.34
2023-02-08T15:32:49.049Z,57.36
2023-02-08T15:37:51.782Z,59.41
2023-02-08T15:42:52.542Z,68.24
2023-02-08T15:47:54.583Z,68.38
2023-02-08T15:53:01.444Z,60.02
2023-02-08T15:58:07.174Z,59.65
2023-02-08T16:03:17.226Z,59.70
2023-02-08T16:08:23.922Z,60.84
2023-02-08T16:13:28.022Z,69.89
2023-02-08T16:18:39.493Z,62.68
2023-02-08T16:23:49.224Z,61.54
2023-02-08T16:28:56.752Z,63.00
2023-02-08T16:33:59.527Z,63.05
2023-02-08T16:39:24.117Z,63.18
2023-02-08T16:44:27.171Z,63.61
2023-02-08T16:49:28.373Z,63.10
2023-02-08T16:54:30.425Z,63.79
2023-02-08T17:04:32.101Z,63.91
2023-02-08T17:09:34.495Z,64.91
2023-02-08T17:14:35.176Z,65.39
2023-02-08T17:19:35.921Z,65.53
2023-02-08T17:24:39.280Z,66.45
2023-02-08T17:29:40.253Z,66.33
2023-02-08T17:34:40.994Z,66.19
2023-02-08T17:39:42.994Z,66.11
2023-02-08T17:44:43.667Z,66.36
2023-02-08T17:49:44.398Z,66.89
2023-02-08T17:54:46.441Z,66.31
2023-02-08T17:59:47.196Z,66.52
2023-02-08T18:04:47.907Z,67.38
2023-02-08T18:09:49.926Z,66.86
2023-02-08T18:14:50.641Z,66.99
2023-02-08T18:19:52.391Z,67.12
2023-02-08T18:24:55.284Z,67.60
2023-02-08T18:29:56.045Z,67.92
2023-02-08T18:34:58.465Z,67.67
2023-02-08T18:40:00.849Z,67.64
2023-02-08T18:45:01.538Z,67.81
2023-02-08T18:50:02.264Z,67.92
2023-02-08T18:55:05.295Z,68.44
2023-02-08T19:00:07.284Z,68.08
2023-02-08T19:05:08.366Z,68.61
2023-02-08T19:10:10.757Z,68.42
2023-02-08T19:15:11.524Z,68.45
2023-02-08T19:20:12.789Z,68.56
2023-02-08T19:25:14.926Z,68.38
2023-02-08T19:30:17.128Z,68.39
2023-02-08T19:35:18.454Z,68.42
2023-02-08T19:40:21.602Z,68.66
2023-02-08T19:45:22.541Z,69.26
2023-02-08T19:50:23.388Z,69.20
2023-02-08T19:55:25.426Z,69.06
2023-02-08T20:00:26.416Z,69.69
2023-02-08T20:05:27.133Z,68.89
2023-02-08T20:10:29.165Z,69.03
2023-02-08T20:15:29.865Z,68.67
2023-02-08T20:20:30.611Z,68.44
2023-02-08T20:25:33.011Z,68.56
2023-02-08T20:30:33.902Z,68.34
2023-02-08T20:35:37.263Z,67.90
2023-02-08T20:40:39.309Z,67.41
2023-02-08T20:45:41.825Z,67.39
2023-02-08T20:50:42.854Z,67.35
2023-02-08T20:55:45.407Z,67.54
2023-02-08T21:00:46.539Z,67.32
2023-02-08T21:05:47.258Z,67.05
2023-02-08T21:10:49.272Z,66.57
2023-02-08T21:15:49.966Z,65.97
2023-02-08T21:20:51.318Z,66.06
2023-02-08T21:25:53.542Z,65.79
2023-02-08T21:30:58.027Z,64.76
2023-02-08T21:36:02.921Z,64.30
2023-02-08T21:41:08.944Z,63.85
2023-02-08T21:46:10.441Z,63.31
2023-02-08T21:51:29.029Z,62.40
2023-02-08T21:56:31.075Z,61.88
2023-02-08T22:01:31.827Z,61.84
2023-02-08T22:06:32.589Z,62.02
2023-02-08T22:11:35.742Z,61.90
2023-02-08T22:16:36.705Z,62.05
2023-02-08T22:21:37.438Z,62.13
2023-02-08T22:26:39.569Z,62.13
2023-02-08T22:31:40.421Z,62.47
2023-02-08T22:36:41.168Z,62.24
2023-02-08T22:41:43.291Z,62.72
2023-02-08T22:46:44.024Z,62.06
2023-02-08T22:51:44.742Z,61.99
2023-02-08T22:56:46.734Z,62.54
2023-02-08T23:01:47.668Z,62.99
2023-02-08T23:06:48.690Z,62.24
2023-02-08T23:11:50.834Z,62.99
2023-02-08T23:16:52.031Z,62.67
2023-02-08T23:21:52.743Z,62.83
2023-02-08T23:26:54.952Z,63.09
2023-02-08T23:31:55.687Z,63.14
2023-02-08T23:36:56.424Z,63.67
2023-02-08T23:41:58.512Z,63.08
2023-02-08T23:46:59.225Z,62.28
2023-02-08T23:51:59.913Z,63.14
2023-02-08T23:57:01.915Z,62.53
